Time;durP1;ratioP1;P1;durP2;ratioP2;P2;SDS_P1;SDS_P2;PMS_P1;PMS_P2;Temp;Humidity;BMP_temperature;BMP_pressure;BME280_temperature;BME280_humidity;BME280_pressure;Samples;Min_cycle;Max_cycle;Signal;HPM_P1;HPM_P2
2023/01/21 00:01:47;;;;;;;48.38;29.60;;;;;;;-2.56;100.00;102443.28;5071041;28;20115;-48
2023/01/21 00:04:12;;;;;;;46.72;29.02;;;;;;;-2.59;100.00;102446.34;5071161;28;20020;-46
2023/01/21 00:06:37;;;;;;;49.20;31.75;;;;;;;-2.60;100.00;102450.09;5071076;28;20056;-46
2023/01/21 00:09:03;;;;;;;57.38;40.88;;;;;;;-2.64;100.00;102457.72;5070941;28;20031;-50
2023/01/21 00:11:28;;;;;;;50.45;31.17;;;;;;;-2.69;100.00;102457.41;5071057;28;20029;-49
2023/01/21 00:13:54;;;;;;;51.08;32.17;;;;;;;-2.72;100.00;102464.03;5071117;28;20059;-49
2023/01/21 00:16:19;;;;;;;45.22;29.52;;;;;;;-2.72;100.00;102465.91;5071129;28;20032;-47
2023/01/21 00:18:46;;;;;;;48.88;30.58;;;;;;;-2.72;100.00;102469.44;5070952;28;20036;-47
2023/01/21 00:21:12;;;;;;;47.08;29.25;;;;;;;-2.73;100.00;102475.06;5071107;28;20028;-49
2023/01/21 00:23:37;;;;;;;48.65;29.92;;;;;;;-2.74;100.00;102471.47;5070972;28;20029;-48
2023/01/21 00:26:05;;;;;;;47.97;30.00;;;;;;;-2.80;100.00;102472.19;5071074;28;20613;-47
2023/01/21 00:28:32;;;;;;;47.58;28.63;;;;;;;-2.79;100.00;102471.19;5071037;28;20029;-46
2023/01/21 00:31:02;;;;;;;49.72;30.27;;;;;;;-2.79;100.00;102479.31;5070999;28;20052;-48
2023/01/21 00:33:29;;;;;;;49.72;31.00;;;;;;;-2.78;100.00;102472.88;5070914;28;20432;-49
2023/01/21 00:36:09;;;;;;;49.35;30.55;;;;;;;-2.91;100.00;102461.75;5070815;28;20112;-46
2023/01/21 00:38:35;;;;;;;51.42;31.10;;;;;;;-2.85;100.00;102478.16;5070936;28;20024;-48
2023/01/21 00:41:12;;;;;;;49.67;30.05;;;;;;;-2.87;100.00;102484.75;5070937;28;20052;-48
2023/01/21 00:43:38;;;;;;;52.45;31.75;;;;;;;-2.85;100.00;102488.97;5063113;28;20027;-47
2023/01/21 00:46:04;;;;;;;52.90;32.33;;;;;;;-2.88;100.00;102483.06;5070222;28;20063;-48
2023/01/21 00:48:30;;;;;;;53.50;30.48;;;;;;;-2.86;100.00;102490.00;5070715;28;20444;-47
2023/01/21 00:50:59;;;;;;;48.90;31.55;;;;;;;-2.89;100.00;102495.78;5070752;28;20032;-47
2023/01/21 00:53:25;;;;;;;49.40;29.90;;;;;;;-2.90;100.00;102493.22;5070431;28;20444;-47
2023/01/21 00:55:51;;;;;;;51.55;30.65;;;;;;;-2.89;100.00;102511.19;5070771;28;20088;-50
2023/01/21 00:58:16;;;;;;;50.53;31.58;;;;;;;-2.93;100.00;102507.97;5070626;28;20067;-46
2023/01/21 01:00:41;;;;;;;52.78;31.17;;;;;;;-2.91;100.00;102508.66;5070522;28;20056;-50
2023/01/21 01:03:07;;;;;;;52.97;33.20;;;;;;;-2.92;100.00;102512.38;5070444;28;20025;-45
2023/01/21 01:05:32;;;;;;;53.60;33.38;;;;;;;-2.91;100.00;102527.59;5070575;28;20028;-51
2023/01/21 01:07:57;;;;;;;55.28;32.25;;;;;;;-2.92;100.00;102528.63;5070638;28;20024;-50
2023/01/21 01:10:23;;;;;;;53.38;32.78;;;;;;;-2.89;100.00;102532.84;5070613;28;20029;-54
2023/01/21 01:12:48;;;;;;;55.25;33.70;;;;;;;-2.90;100.00;102542.84;5070520;28;20086;-48
2023/01/21 01:15:13;;;;;;;56.95;35.03;;;;;;;-2.95;100.00;102539.78;5070651;28;20029;-47
2023/01/21 01:17:39;;;;;;;52.47;34.45;;;;;;;-2.92;100.00;102544.00;5070645;28;20028;-51
2023/01/21 01:20:05;;;;;;;59.67;33.75;;;;;;;-2.95;100.00;102558.75;5070518;28;20483;-48
2023/01/21 01:22:30;;;;;;;53.40;36.85;;;;;;;-2.93;100.00;102566.72;5070500;28;20075;-47
2023/01/21 01:24:55;;;;;;;58.80;36.35;;;;;;;-2.98;100.00;102565.38;5070574;28;20028;-47
2023/01/21 01:27:21;;;;;;;59.38;34.97;;;;;;;-2.99;100.00;102566.38;5072628;28;20032;-47
2023/01/21 01:29:47;;;;;;;52.85;33.25;;;;;;;-3.03;100.00;102573.19;5073934;28;20501;-50
2023/01/21 01:32:13;;;;;;;58.70;35.28;;;;;;;-3.03;100.00;102580.44;5073838;28;20033;-49
2023/01/21 01:34:38;;;;;;;58.58;35.00;;;;;;;-3.05;100.00;102588.75;5073980;28;20127;-47
2023/01/21 01:37:03;;;;;;;53.90;35.13;;;;;;;-3.03;100.00;102588.56;5073844;28;20044;-50
2023/01/21 01:39:29;;;;;;;64.10;37.05;;;;;;;-3.04;100.00;102595.00;5073803;28;20016;-49
2023/01/21 01:41:54;;;;;;;60.47;35.35;;;;;;;-3.06;100.00;102600.59;5073822;28;20032;-46
2023/01/21 01:44:55;;;;;;;65.47;37.88;;;;;;;-3.05;100.00;102604.13;5073720;28;20151;-47
2023/01/21 01:47:43;;;;;;;61.92;37.45;;;;;;;-3.06;100.00;102613.28;5067710;28;20021;-49
2023/01/21 01:50:11;;;;;;;61.08;36.83;;;;;;;-3.11;100.00;102610.25;5073748;28;20024;-48
2023/01/21 01:52:39;;;;;;;61.97;37.72;;;;;;;-3.10;100.00;102610.06;5073865;28;20043;-51
2023/01/21 01:55:07;;;;;;;62.25;38.00;;;;;;;-3.13;100.00;102611.25;5073462;28;20053;-51
2023/01/21 01:57:40;;;;;;;64.28;40.17;;;;;;;-3.08;100.00;102616.16;5072513;28;20123;-48
2023/01/21 02:00:08;;;;;;;63.03;39.30;;;;;;;-3.14;100.00;102616.84;5072876;28;20032;-47
2023/01/21 02:02:34;;;;;;;63.88;37.35;;;;;;;-3.14;100.00;102623.09;5072442;28;20536;-48
2023/01/21 02:05:04;;;;;;;61.05;38.47;;;;;;;-3.18;100.00;102620.91;5071358;28;20481;-49
2023/01/21 02:07:38;;;;;;;66.57;40.13;;;;;;;-3.19;100.00;102627.34;5072816;28;20029;-46
2023/01/21 02:10:13;;;;;;;68.13;41.83;;;;;;;-3.19;100.00;102630.03;5072864;28;20025;-47
2023/01/21 02:12:42;;;;;;;66.63;38.95;;;;;;;-3.18;100.00;102631.72;5072527;28;20037;-46
2023/01/21 02:15:08;;;;;;;67.75;40.25;;;;;;;-3.19;100.00;102638.16;5072794;28;20028;-47
2023/01/21 02:17:45;;;;;;;67.45;40.50;;;;;;;-3.21;100.00;102638.34;5071332;28;20035;-50
2023/01/21 02:20:40;;;;;;;64.57;39.83;;;;;;;-3.20;100.00;102642.75;5072728;28;20032;-46
2023/01/21 02:23:26;;;;;;;67.10;39.17;;;;;;;-3.24;100.00;102648.66;5073094;28;20024;-47
2023/01/21 02:26:29;;;;;;;68.90;39.42;;;;;;;-3.26;100.00;102659.69;5072522;28;20029;-49
2023/01/21 02:29:27;;;;;;;64.90;39.72;;;;;;;-3.29;100.00;102658.13;5072462;28;20025;-47
2023/01/21 02:32:11;;;;;;;66.18;39.10;;;;;;;-3.30;100.00;102659.13;5071092;28;20028;-47
2023/01/21 02:34:55;;;;;;;70.53;41.13;;;;;;;-3.29;100.00;102663.53;5072475;28;20480;-50
2023/01/21 02:37:38;;;;;;;77.72;43.33;;;;;;;-3.32;100.00;102663.03;5072085;28;20078;-49
2023/01/21 02:40:24;;;;;;;71.45;39.20;;;;;;;-3.35;100.00;102663.34;5072438;28;20131;-45
2023/01/21 02:43:07;;;;;;;70.35;41.17;;;;;;;-3.40;100.00;102663.88;5069190;28;20108;-49
2023/01/21 02:45:40;;;;;;;70.30;42.22;;;;;;;-3.40;100.00;102668.44;5070978;28;20417;-48
2023/01/21 02:48:13;;;;;;;73.80;42.25;;;;;;;-3.49;100.00;102665.72;5072413;28;20032;-50
2023/01/21 02:50:45;;;;;;;73.43;40.13;;;;;;;-3.41;100.00;102681.16;5072438;28;20029;-47
2023/01/21 02:53:31;;;;;;;69.80;40.03;;;;;;;-3.42;100.00;102684.00;5072057;28;20482;-49
2023/01/21 02:56:17;;;;;;;67.88;40.15;;;;;;;-3.47;100.00;102684.50;5070084;28;20260;-48
2023/01/21 02:58:55;;;;;;;69.03;40.78;;;;;;;-3.50;100.00;102684.84;5071876;28;20349;-49
2023/01/21 03:01:29;;;;;;;73.57;41.13;;;;;;;-3.52;100.00;102690.41;5071965;28;20024;-49
2023/01/21 03:04:32;;;;;;;73.18;40.97;;;;;;;-3.54;100.00;102691.59;5071826;28;20032;-48
2023/01/21 03:07:21;;;;;;;71.10;42.20;;;;;;;-3.57;100.00;102690.06;5071994;28;20032;-48
2023/01/21 03:09:47;;;;;;;76.35;40.60;;;;;;;-3.57;100.00;102700.91;5072319;28;20163;-49
2023/01/21 03:12:29;;;;;;;71.00;40.75;;;;;;;-3.62;100.00;102687.00;5071879;28;20075;-47
2023/01/21 03:17:58;;;;;;;65.47;38.33;;;;;;;-3.65;100.00;102704.44;5072051;28;20070;-47
2023/01/21 03:20:33;;;;;;;71.88;39.55;;;;;;;-3.66;100.00;102710.84;5071597;28;20024;-50
2023/01/21 03:23:03;;;;;;;69.05;40.45;;;;;;;-3.71;100.00;102707.81;5071617;28;20027;-46
2023/01/21 03:25:32;;;;;;;73.55;41.72;;;;;;;-3.72;100.00;102708.81;5071261;28;20028;-47
2023/01/21 03:27:59;;;;;;;68.05;38.78;;;;;;;-3.71;100.00;102715.91;5071396;28;20071;-45
2023/01/21 03:30:26;;;;;;;66.50;38.10;;;;;;;-3.71;100.00;102712.34;5071312;28;20028;-52
2023/01/21 03:32:55;;;;;;;65.82;37.80;;;;;;;-3.73;100.00;102720.63;5071272;28;20060;-48
2023/01/21 03:35:28;;;;;;;64.30;37.78;;;;;;;-3.76;100.00;102716.41;5071287;28;20047;-46
2023/01/21 03:37:59;;;;;;;61.17;35.03;;;;;;;-3.73;100.00;102725.22;5071650;28;20093;-49
2023/01/21 03:40:34;;;;;;;62.00;38.08;;;;;;;-3.72;100.00;102726.88;5063861;28;20487;-48
2023/01/21 03:43:00;;;;;;;69.28;39.25;;;;;;;-3.75;100.00;102728.06;5071459;28;20037;-50
2023/01/21 03:45:31;;;;;;;64.15;37.50;;;;;;;-3.73;100.00;102733.31;5071065;28;20081;-50
2023/01/21 03:48:02;;;;;;;66.50;39.50;;;;;;;-3.70;100.00;102743.78;5069777;28;20097;-50
2023/01/21 03:50:39;;;;;;;62.67;38.67;;;;;;;-3.72;100.00;102735.84;5070514;28;20024;-51
2023/01/21 03:53:05;;;;;;;59.40;36.15;;;;;;;-3.76;100.00;102737.19;5071619;28;20088;-47
2023/01/21 03:55:31;;;;;;;59.67;34.95;;;;;;;-3.78;100.00;102734.66;5070497;28;20060;-46
2023/01/21 03:57:56;;;;;;;61.80;36.25;;;;;;;-3.77;100.00;102744.47;5071147;28;20081;-47
2023/01/21 04:00:21;;;;;;;59.08;34.17;;;;;;;-3.79;100.00;102745.66;5071179;28;20361;-45
2023/01/21 04:02:46;;;;;;;59.17;34.58;;;;;;;-3.79;100.00;102746.47;5070301;28;20170;-46
2023/01/21 04:05:13;;;;;;;66.25;36.78;;;;;;;-3.81;100.00;102744.94;5071048;28;20036;-47
2023/01/21 04:07:38;;;;;;;65.70;37.60;;;;;;;-3.82;100.00;102745.97;5070869;28;20336;-47
2023/01/21 04:10:04;;;;;;;62.03;34.50;;;;;;;-3.84;100.00;102750.69;5070965;28;20028;-47
2023/01/21 04:12:29;;;;;;;66.72;36.15;;;;;;;-3.82;100.00;102756.78;5071010;28;20036;-50
2023/01/21 04:14:55;;;;;;;63.22;34.80;;;;;;;-3.86;100.00;102752.69;5070831;28;20468;-46
2023/01/21 04:17:20;;;;;;;63.20;33.88;;;;;;;-3.84;100.00;102762.34;5071177;28;20032;-47
2023/01/21 04:19:45;;;;;;;65.70;36.88;;;;;;;-3.88;100.00;102758.28;5070883;28;20032;-48
2023/01/21 04:22:10;;;;;;;57.15;33.53;;;;;;;-3.90;100.00;102756.75;5070920;28;20125;-47
2023/01/21 04:24:36;;;;;;;61.92;36.08;;;;;;;-3.88;100.00;102763.69;5069687;28;20082;-46
2023/01/21 04:27:01;;;;;;;63.72;36.65;;;;;;;-3.87;100.00;102772.66;5071041;28;20033;-51
2023/01/21 04:29:26;;;;;;;61.22;34.42;;;;;;;-3.85;100.00;102762.50;5070440;28;20028;-47
2023/01/21 04:31:52;;;;;;;61.00;34.20;;;;;;;-3.85;100.00;102768.78;5070846;28;20035;-46
2023/01/21 04:34:17;;;;;;;62.05;35.05;;;;;;;-3.86;100.00;102772.50;5071071;28;20031;-49
2023/01/21 04:36:42;;;;;;;65.72;36.65;;;;;;;-3.87;100.00;102765.38;5071208;28;20016;-48
2023/01/21 04:39:10;;;;;;;66.22;35.70;;;;;;;-3.90;100.00;102765.69;5070076;28;20477;-49
2023/01/21 04:41:35;;;;;;;70.20;41.00;;;;;;;-3.90;100.00;102763.00;5068432;28;20028;-47
2023/01/21 04:44:00;;;;;;;66.07;39.42;;;;;;;-3.90;100.00;102765.69;5071070;28;20036;-52
2023/01/21 04:46:26;;;;;;;69.53;39.00;;;;;;;-3.88;100.00;102770.97;5071232;28;20028;-53
2023/01/21 04:48:51;;;;;;;56.13;32.67;;;;;;;-3.88;100.00;102769.09;5070732;28;20396;-47
2023/01/21 04:51:16;;;;;;;65.03;35.30;;;;;;;-3.88;100.00;102771.78;5070623;28;20086;-49
2023/01/21 04:53:42;;;;;;;60.25;36.30;;;;;;;-3.89;100.00;102783.63;5071055;28;20605;-48
2023/01/21 04:56:07;;;;;;;63.00;33.85;;;;;;;-3.88;100.00;102781.78;5070801;28;20037;-50
2023/01/21 04:58:33;;;;;;;62.42;33.67;;;;;;;-3.89;100.00;102786.31;5071132;28;20105;-49
2023/01/21 05:00:58;;;;;;;64.82;34.28;;;;;;;-3.92;100.00;102782.09;5072767;28;20491;-49
2023/01/21 05:03:24;;;;;;;60.65;35.47;;;;;;;-3.94;100.00;102789.50;5074517;28;20393;-46
2023/01/21 05:05:49;;;;;;;60.67;36.13;;;;;;;-3.94;100.00;102796.78;5074674;28;20041;-47
2023/01/21 05:08:14;;;;;;;59.75;34.20;;;;;;;-3.95;100.00;102803.19;5074088;28;20200;-47
2023/01/21 05:10:39;;;;;;;66.60;35.10;;;;;;;-3.98;100.00;102801.69;5073872;28;20028;-47
2023/01/21 05:13:05;;;;;;;61.00;34.33;;;;;;;-3.99;100.00;102805.38;5074163;28;20422;-49
2023/01/21 05:15:31;;;;;;;57.03;33.10;;;;;;;-3.96;100.00;102810.44;5073998;28;20025;-48
2023/01/21 05:17:56;;;;;;;58.92;33.33;;;;;;;-3.97;100.00;102808.78;5074198;28;20616;-47
2023/01/21 05:20:22;;;;;;;60.83;34.42;;;;;;;-4.00;100.00;102806.38;5074046;28;20089;-48
2023/01/21 05:22:47;;;;;;;58.67;33.72;;;;;;;-4.00;100.00;102809.09;5073803;28;20028;-47
2023/01/21 05:25:13;;;;;;;57.70;32.72;;;;;;;-4.02;100.00;102819.22;5073718;28;20021;-47
2023/01/21 05:27:38;;;;;;;61.30;33.17;;;;;;;-4.08;100.00;102809.88;5074032;28;20032;-46
2023/01/21 05:30:04;;;;;;;56.47;32.97;;;;;;;-4.03;100.00;102813.97;5074200;28;20033;-48
2023/01/21 05:32:30;;;;;;;54.80;31.77;;;;;;;-4.05;100.00;102813.28;5074022;28;20407;-48
2023/01/21 05:34:55;;;;;;;58.70;32.45;;;;;;;-4.07;100.00;102817.00;5074055;28;20115;-49
2023/01/21 05:37:20;;;;;;;65.10;34.50;;;;;;;-4.11;100.00;102822.88;5068471;28;20112;-47
2023/01/21 05:39:46;;;;;;;57.40;33.67;;;;;;;-4.08;100.00;102823.41;5073993;28;20104;-46
2023/01/21 05:42:11;;;;;;;60.75;32.83;;;;;;;-4.08;100.00;102823.41;5073789;28;20025;-47
2023/01/21 05:44:36;;;;;;;64.15;34.03;;;;;;;-4.11;100.00;102821.00;5072572;28;20029;-48
2023/01/21 05:47:01;;;;;;;58.33;33.85;;;;;;;-4.08;100.00;102831.50;5073607;28;20093;-47
2023/01/21 05:49:27;;;;;;;60.38;33.65;;;;;;;-4.05;100.00;102834.91;5073961;28;20032;-45
2023/01/21 05:51:52;;;;;;;61.13;35.40;;;;;;;-4.08;100.00;102836.91;5071881;28;20035;-47
2023/01/21 05:54:17;;;;;;;61.95;32.47;;;;;;;-4.09;100.00;102839.78;5072729;28;20060;-48
2023/01/21 05:56:43;;;;;;;57.88;32.38;;;;;;;-4.13;100.00;102838.41;5073778;28;20181;-46
2023/01/21 05:59:08;;;;;;;55.13;30.33;;;;;;;-4.10;100.00;102844.34;5073735;28;20494;-51
2023/01/21 06:01:33;;;;;;;64.40;35.85;;;;;;;-4.09;100.00;102842.50;5073262;28;20032;-50
2023/01/21 06:03:59;;;;;;;65.10;33.85;;;;;;;-4.11;100.00;102847.19;5073391;28;20123;-48
2023/01/21 06:06:24;;;;;;;69.60;35.53;;;;;;;-4.13;100.00;102849.22;5073447;28;20135;-48
2023/01/21 06:08:49;;;;;;;66.53;37.45;;;;;;;-4.14;100.00;102845.66;5092173;28;20028;-48
2023/01/21 06:11:15;;;;;;;62.97;33.50;;;;;;;-4.13;100.00;102860.03;5092607;28;20031;-47
2023/01/21 06:13:40;;;;;;;55.70;33.00;;;;;;;-4.14;100.00;102856.50;5091876;28;20028;-48
2023/01/21 06:16:06;;;;;;;65.97;35.70;;;;;;;-4.18;100.00;102855.09;5090599;28;20111;-48
2023/01/21 06:18:31;;;;;;;61.03;32.63;;;;;;;-4.17;100.00;102862.19;5092808;28;20028;-48
2023/01/21 06:20:59;;;;;;;68.35;35.47;;;;;;;-4.18;100.00;102867.78;5092083;28;20027;-50
2023/01/21 06:23:25;;;;;;;59.53;33.47;;;;;;;-4.20;100.00;102869.78;5091954;28;20054;-45
2023/01/21 06:25:51;;;;;;;57.33;31.73;;;;;;;-4.20;100.00;102875.19;5091834;28;20036;-45
2023/01/21 06:28:16;;;;;;;58.45;32.65;;;;;;;-4.20;100.00;102875.19;5091471;28;20241;-49
2023/01/21 06:30:41;;;;;;;58.30;32.53;;;;;;;-4.22;100.00;102875.34;5089511;28;20020;-48
2023/01/21 06:33:07;;;;;;;65.22;34.28;;;;;;;-4.22;100.00;102872.66;5078291;28;20020;-46
2023/01/21 06:35:32;;;;;;;62.05;35.47;;;;;;;-4.24;100.00;102874.66;5091074;28;20387;-46
2023/01/21 06:37:58;;;;;;;58.97;33.70;;;;;;;-4.25;100.00;102879.19;5072776;28;20480;-47
2023/01/21 06:40:24;;;;;;;67.22;34.78;;;;;;;-4.26;100.00;102877.53;5081766;28;20588;-45
2023/01/21 06:42:49;;;;;;;63.88;33.38;;;;;;;-4.26;100.00;102882.06;5090700;28;20066;-50
2023/01/21 06:45:15;;;;;;;57.92;31.10;;;;;;;-4.26;100.00;102892.88;5090987;28;20433;-45
2023/01/21 06:47:41;;;;;;;56.03;32.22;;;;;;;-4.32;100.00;102891.63;5091038;28;20028;-45
2023/01/21 06:50:09;;;;;;;64.35;33.58;;;;;;;-4.35;100.00;102894.69;5090749;28;20032;-49
2023/01/21 06:52:34;;;;;;;64.45;34.80;;;;;;;-4.32;100.00;102907.84;5089235;28;20043;-46
2023/01/21 06:55:00;;;;;;;63.83;34.88;;;;;;;-4.31;100.00;102908.72;5090103;28;20040;-48
2023/01/21 06:57:25;;;;;;;72.43;35.88;;;;;;;-4.31;100.00;102912.25;5090596;28;20032;-48
2023/01/21 06:59:50;;;;;;;62.60;32.95;;;;;;;-4.27;100.00;102921.78;5090993;28;20028;-46
2023/01/21 07:02:16;;;;;;;58.63;32.63;;;;;;;-4.29;100.00;102917.50;5090264;28;20038;-48
2023/01/21 07:04:41;;;;;;;66.20;35.10;;;;;;;-4.28;100.00;102928.19;5090346;28;20028;-49
2023/01/21 07:07:06;;;;;;;64.13;34.67;;;;;;;-4.27;100.00;102923.59;5090521;28;20032;-48
2023/01/21 07:09:32;;;;;;;62.35;35.20;;;;;;;-4.30;100.00;102932.03;5092320;28;20475;-48
2023/01/21 07:11:57;;;;;;;57.47;31.85;;;;;;;-4.27;100.00;102934.41;5091974;28;20455;-45
2023/01/21 07:14:23;;;;;;;65.25;34.03;;;;;;;-4.29;100.00;102933.72;5090690;28;20028;-47
2023/01/21 07:16:48;;;;;;;67.18;34.42;;;;;;;-4.29;100.00;102947.22;5090552;28;20043;-51
2023/01/21 07:19:14;;;;;;;59.38;33.38;;;;;;;-4.30;100.00;102953.66;5089249;28;20384;-50
2023/01/21 07:21:40;;;;;;;65.32;34.63;;;;;;;-4.30;100.00;102950.97;5090643;28;20039;-47
2023/01/21 07:24:06;;;;;;;85.43;43.28;;;;;;;-4.27;100.00;102954.19;5088364;28;20046;-48
2023/01/21 07:26:34;;;;;;;73.65;37.90;;;;;;;-4.25;100.00;102956.75;5088402;28;20048;-47
2023/01/21 07:29:01;;;;;;;74.80;39.30;;;;;;;-4.21;100.00;102971.66;5085843;28;20051;-50
2023/01/21 07:31:26;;;;;;;79.07;40.92;;;;;;;-4.15;100.00;102973.72;5090521;28;20050;-48
2023/01/21 07:33:52;;;;;;;72.43;35.05;;;;;;;-4.13;100.00;102974.44;5090631;28;20471;-45
2023/01/21 07:36:17;;;;;;;83.22;40.28;;;;;;;-4.08;100.00;102963.16;5090334;28;20039;-46
2023/01/21 07:38:43;;;;;;;88.25;41.50;;;;;;;-4.04;100.00;102975.34;5090650;28;20036;-46
2023/01/21 07:41:08;;;;;;;70.32;36.92;;;;;;;-4.00;100.00;102974.03;5090346;28;20479;-45
2023/01/21 07:43:33;;;;;;;73.47;38.45;;;;;;;-3.90;100.00;102975.78;5089169;28;20039;-46
2023/01/21 07:45:59;;;;;;;79.72;37.40;;;;;;;-3.89;100.00;102978.34;5089927;28;20414;-46
2023/01/21 07:48:24;;;;;;;82.63;38.33;;;;;;;-3.86;100.00;102988.84;5089558;28;20225;-47
2023/01/21 07:50:50;;;;;;;74.70;36.67;;;;;;;-3.82;100.00;102990.22;5089784;28;20063;-44
2023/01/21 07:53:15;;;;;;;86.57;39.65;;;;;;;-3.81;100.00;102994.63;5090060;28;20083;-46
2023/01/21 07:55:40;;;;;;;88.60;39.80;;;;;;;-3.73;100.00;103001.97;5089207;28;20051;-48
2023/01/21 07:58:06;;;;;;;98.05;46.55;;;;;;;-3.72;100.00;103000.09;5089429;28;20491;-46
2023/01/21 08:00:31;;;;;;;96.95;43.13;;;;;;;-3.69;100.00;103011.47;5090603;28;20023;-49
2023/01/21 08:02:57;;;;;;;81.85;39.92;;;;;;;-3.65;100.00;103015.53;5073122;28;20462;-48
2023/01/21 08:05:23;;;;;;;84.57;41.08;;;;;;;-3.58;100.00;103015.75;5090547;28;20023;-47
2023/01/21 08:07:49;;;;;;;84.25;38.30;;;;;;;-3.56;100.00;103023.72;5091149;28;20050;-45
2023/01/21 08:10:16;;;;;;;80.68;39.17;;;;;;;-3.54;100.00;103032.53;5090823;28;20468;-48
2023/01/21 08:12:42;;;;;;;82.65;38.33;;;;;;;-3.54;100.00;103040.66;5090814;28;20039;-50
2023/01/21 08:15:08;;;;;;;80.60;38.63;;;;;;;-3.48;100.00;103046.28;5089391;28;20031;-50
2023/01/21 08:17:36;;;;;;;85.15;42.00;;;;;;;-3.42;100.00;103054.78;5090367;28;20076;-53
2023/01/21 08:20:01;;;;;;;74.60;37.03;;;;;;;-3.37;100.00;103052.47;5090696;28;20456;-50
2023/01/21 08:22:26;;;;;;;74.68;34.55;;;;;;;-3.34;100.00;103058.41;5083499;28;20613;-49
2023/01/21 08:24:51;;;;;;;80.13;36.65;;;;;;;-3.25;100.00;103061.16;5090979;28;20383;-45
2023/01/21 08:27:17;;;;;;;74.95;36.47;;;;;;;-3.24;100.00;103071.81;5090581;28;20028;-46
2023/01/21 08:29:42;;;;;;;77.35;39.03;;;;;;;-3.19;100.00;103082.16;5089579;28;20020;-48
2023/01/21 08:32:08;;;;;;;72.80;35.42;;;;;;;-3.24;100.00;103071.81;5089990;28;20103;-45
2023/01/21 08:34:34;;;;;;;78.45;36.90;;;;;;;-3.13;100.00;103078.84;5090374;28;20480;-45
2023/01/21 08:37:00;;;;;;;76.80;37.30;;;;;;;-3.12;100.00;103080.53;5094738;28;20099;-49
2023/01/21 08:39:25;;;;;;;81.18;36.53;;;;;;;-3.09;100.00;103087.50;5095189;28;20119;-49
2023/01/21 08:41:50;;;;;;;81.35;36.58;;;;;;;-3.16;100.00;103084.56;5093582;28;20313;-48
2023/01/21 08:44:15;;;;;;;70.28;34.30;;;;;;;-3.15;100.00;103095.22;5094842;28;20028;-49
2023/01/21 08:46:41;;;;;;;75.53;37.58;;;;;;;-3.11;100.00;103089.50;5094438;28;20060;-49
2023/01/21 08:49:06;;;;;;;74.20;36.67;;;;;;;-3.08;100.00;103091.91;5095041;28;20026;-47
2023/01/21 08:51:31;;;;;;;78.60;34.78;;;;;;;-3.03;100.00;103093.13;5094885;28;20425;-46
2023/01/21 08:53:57;;;;;;;71.95;35.47;;;;;;;-3.00;100.00;103091.97;5094669;28;20039;-50
2023/01/21 08:56:22;;;;;;;92.78;45.60;;;;;;;-3.04;100.00;103102.25;5094815;28;20048;-49
2023/01/21 08:58:53;;;;;;;84.32;40.10;;;;;;;-3.05;100.00;103100.56;5094549;28;20437;-48
2023/01/21 09:01:18;;;;;;;78.93;37.83;;;;;;;-3.02;100.00;103108.34;5094531;28;20028;-47
2023/01/21 09:03:43;;;;;;;81.05;37.47;;;;;;;-3.01;100.00;103107.34;5094453;28;20379;-48
2023/01/21 09:06:10;;;;;;;72.97;32.75;;;;;;;-2.94;100.00;103107.56;5089165;28;20158;-49
2023/01/21 09:08:35;;;;;;;89.00;40.97;;;;;;;-2.89;100.00;103116.06;5074405;28;20025;-51
2023/01/21 09:11:02;;;;;;;78.53;36.60;;;;;;;-2.88;100.00;103116.91;5074065;28;20101;-46
2023/01/21 09:13:29;;;;;;;64.78;33.15;;;;;;;-2.84;100.00;103121.00;5072624;28;20032;-48
2023/01/21 09:15:55;;;;;;;84.10;36.05;;;;;;;-2.93;100.00;103111.13;5074060;28;20039;-46
2023/01/21 09:18:20;;;;;;;73.82;35.05;;;;;;;-2.85;100.00;103116.59;5066594;28;20187;-46
2023/01/21 09:20:45;;;;;;;73.25;34.47;;;;;;;-2.80;100.00;103122.38;5073874;28;20081;-48
2023/01/21 09:23:23;;;;;;;69.97;33.58;;;;;;;-2.82;100.00;103119.84;5073927;28;20031;-47
2023/01/21 09:25:52;;;;;;;76.38;34.15;;;;;;;-2.77;100.00;103116.63;5073928;28;20037;-48
2023/01/21 09:28:19;;;;;;;74.15;34.33;;;;;;;-2.79;100.00;103115.94;5073761;28;20032;-50
2023/01/21 09:30:45;;;;;;;69.88;33.55;;;;;;;-2.78;100.00;103122.19;5074281;28;20035;-47
2023/01/21 09:33:11;;;;;;;71.00;33.88;;;;;;;-2.78;100.00;103124.91;5072480;28;20502;-47
2023/01/21 09:35:37;;;;;;;72.38;34.92;;;;;;;-2.70;100.00;103122.28;5073726;28;20406;-50
2023/01/21 09:38:02;;;;;;;77.30;35.47;;;;;;;-2.65;100.00;103129.91;5073627;28;20108;-45
2023/01/21 09:40:27;;;;;;;60.63;30.38;;;;;;;-2.61;100.00;103142.97;5073655;28;20040;-46
2023/01/21 09:42:53;;;;;;;79.75;35.53;;;;;;;-2.68;100.00;103144.63;5073451;28;20048;-50
2023/01/21 09:45:19;;;;;;;70.72;34.17;;;;;;;-2.62;100.00;103148.53;5073119;28;20024;-50
2023/01/21 09:47:48;;;;;;;78.07;36.00;;;;;;;-2.67;100.00;103140.91;5072183;28;20074;-50
2023/01/21 09:50:20;;;;;;;67.90;31.80;;;;;;;-2.57;100.00;103157.06;5073173;28;20092;-46
2023/01/21 09:52:50;;;;;;;63.88;32.05;;;;;;;-2.61;100.00;103158.38;5073259;28;20036;-46
2023/01/21 09:55:26;;;;;;;64.55;33.50;;;;;;;-2.56;100.00;103167.72;5073121;28;20110;-48
2023/01/21 09:58:17;;;;;;;72.00;33.78;;;;;;;-2.47;100.00;103179.47;5073177;28;20029;-47
2023/01/21 10:00:55;;;;;;;71.18;35.20;;;;;;;-2.46;100.00;103186.59;5072870;28;20024;-46
2023/01/21 10:03:31;;;;;;;71.22;34.33;;;;;;;-2.49;100.00;103186.03;5072877;28;20107;-47
2023/01/21 10:06:13;;;;;;;75.05;34.13;;;;;;;-2.51;100.00;103187.09;5072996;28;20031;-47
2023/01/21 10:09:01;;;;;;;70.80;37.42;;;;;;;-2.49;100.00;103197.75;5072882;28;20040;-47
2023/01/21 10:11:58;;;;;;;68.22;32.28;;;;;;;-2.37;100.00;103193.78;5072924;28;20039;-46
2023/01/21 10:14:49;;;;;;;67.07;33.83;;;;;;;-2.33;100.00;103193.44;5065348;28;20038;-46
2023/01/21 10:17:16;;;;;;;69.97;32.22;;;;;;;-2.27;100.00;103192.78;5072799;28;20107;-47
2023/01/21 10:20:03;;;;;;;69.55;32.42;;;;;;;-2.20;100.00;103183.81;5072791;28;20448;-47
2023/01/21 10:22:28;;;;;;;72.20;33.30;;;;;;;-2.07;100.00;103174.41;5072298;28;20029;-48
2023/01/21 10:25:12;;;;;;;75.78;33.58;;;;;;;-1.99;100.00;103173.59;5071796;28;20097;-46
2023/01/21 10:27:41;;;;;;;67.10;32.80;;;;;;;-1.90;100.00;103175.31;5072491;28;20043;-49
2023/01/21 10:30:23;;;;;;;73.97;32.67;;;;;;;-1.78;100.00;103173.13;5071104;28;20020;-49
2023/01/21 10:32:51;;;;;;;63.03;31.55;;;;;;;-1.72;100.00;103167.03;5071380;28;20098;-53
2023/01/21 10:35:20;;;;;;;71.45;31.38;;;;;;;-1.67;100.00;103169.25;5072562;28;20082;-47
2023/01/21 10:38:22;;;;;;;67.93;33.95;;;;;;;-1.62;100.00;103169.59;5072511;28;20028;-51
2023/01/21 10:41:00;;;;;;;69.38;31.10;;;;;;;-1.54;100.00;103163.31;5047945;28;20063;-49
2023/01/21 10:43:47;;;;;;;72.00;33.97;;;;;;;-1.39;100.00;103161.66;5070933;28;20471;-48
2023/01/21 10:46:32;;;;;;;66.63;34.22;;;;;;;-1.30;100.00;103171.50;5070749;28;20430;-50
2023/01/21 10:49:09;;;;;;;70.38;32.60;;;;;;;-1.17;100.00;103172.84;5072072;28;20501;-48
2023/01/21 10:52:01;;;;;;;65.80;32.85;;;;;;;-1.05;100.00;103162.50;5071190;28;20029;-48
2023/01/21 10:54:38;;;;;;;60.92;30.67;;;;;;;-1.02;100.00;103154.84;5071845;28;20071;-45
2023/01/21 10:57:16;;;;;;;63.40;31.83;;;;;;;-1.02;100.00;103171.16;5071865;28;20047;-49
2023/01/21 10:59:41;;;;;;;54.92;29.38;;;;;;;-0.97;100.00;103162.50;5075536;28;20062;-49
2023/01/21 11:02:07;;;;;;;57.97;30.42;;;;;;;-0.89;100.00;103159.75;5078865;28;20114;-48
2023/01/21 11:04:34;;;;;;;57.47;30.27;;;;;;;-0.87;100.00;103167.72;5090329;28;20471;-48
2023/01/21 11:07:04;;;;;;;62.22;32.22;;;;;;;-0.87;100.00;103162.28;5083250;28;20127;-51
2023/01/21 11:09:34;;;;;;;63.38;31.67;;;;;;;-0.88;100.00;103164.19;5071800;28;20016;-47
2023/01/21 11:12:01;;;;;;;59.90;31.42;;;;;;;-0.91;100.00;103158.25;5080325;28;20541;-50
2023/01/21 11:14:27;;;;;;;59.25;30.27;;;;;;;-0.98;100.00;103155.34;5083570;28;20031;-50